Time;durP1;ratioP1;P1;durP2;ratioP2;P2;SDS_P1;SDS_P2;PMS_P1;PMS_P2;Temp;Humidity;BMP_temperature;BMP_pressure;BME280_temperature;BME280_humidity;BME280_pressure;Samples;Min_cycle;Max_cycle;Signal;HPM_P1;HPM_P2
2023/04/01 00:01:39;;;;;;;0.70;0.60;;;;;;;;;;5013273;28;20041;-76
2023/04/01 00:04:05;;;;;;;1.02;0.60;;;;;;;;;;5010975;28;20025;-76
2023/04/01 00:06:31;;;;;;;0.57;0.50;;;;;;;;;;5001422;28;20480;-76
2023/04/01 00:08:57;;;;;;;1.00;0.60;;;;;;;;;;5008683;28;20037;-76
2023/04/01 00:11:23;;;;;;;1.23;0.70;;;;;;;;;;5008382;28;20079;-77
2023/04/01 00:13:49;;;;;;;1.13;0.75;;;;;;;;;;5014503;28;20033;-77
2023/04/01 00:16:16;;;;;;;1.30;0.60;;;;;;;;;;5012939;28;20056;-76
2023/04/01 00:18:42;;;;;;;0.88;0.60;;;;;;;;;;5013273;28;20022;-76
2023/04/01 00:21:08;;;;;;;0.82;0.65;;;;;;;;;;5009214;28;20037;-76
2023/04/01 00:23:35;;;;;;;0.47;0.47;;;;;;;;;;5017141;28;20488;-76
2023/04/01 00:26:01;;;;;;;0.88;0.40;;;;;;;;;;5014748;28;20164;-76
2023/04/01 00:28:28;;;;;;;0.35;0.35;;;;;;;;;;5010616;28;20041;-76
2023/04/01 00:30:54;;;;;;;0.52;0.52;;;;;;;;;;5018913;28;20032;-76
2023/04/01 00:33:20;;;;;;;1.10;0.70;;;;;;;;;;5016717;28;20041;-76
2023/04/01 00:35:46;;;;;;;0.85;0.52;;;;;;;;;;5006648;28;20018;-77
2023/04/01 00:38:12;;;;;;;0.68;0.50;;;;;;;;;;5011193;28;20029;-76
2023/04/01 00:40:42;;;;;;;0.73;0.40;;;;;;;;;;5020296;28;20058;-76
2023/04/01 00:43:11;;;;;;;0.82;0.73;;;;;;;;;;5001526;28;20046;-76
2023/04/01 00:45:39;;;;;;;0.47;0.47;;;;;;;;;;5016948;28;20496;-76
2023/04/01 00:48:07;;;;;;;1.25;0.57;;;;;;;;;;5010990;28;20220;-76
2023/04/01 00:50:35;;;;;;;1.08;0.60;;;;;;;;;;5017216;28;20025;-76
2023/04/01 00:53:01;;;;;;;0.65;0.63;;;;;;;;;;5011705;28;20029;-76
2023/04/01 00:55:28;;;;;;;1.85;1.42;;;;;;;;;;5006966;28;20040;-76
2023/04/01 00:57:56;;;;;;;0.75;0.50;;;;;;;;;;5017223;28;20037;-76
2023/04/01 01:00:22;;;;;;;0.63;0.50;;;;;;;;;;5013522;28;20096;-77
2023/04/01 01:02:50;;;;;;;0.60;0.57;;;;;;;;;;5007507;28;20521;-76
2023/04/01 01:05:16;;;;;;;1.98;0.60;;;;;;;;;;5017071;28;20083;-76
2023/04/01 01:08:05;;;;;;;0.52;0.52;;;;;;;;;;5013234;28;20037;-77
2023/04/01 01:10:33;;;;;;;0.70;0.60;;;;;;;;;;5004097;28;20033;-76
2023/04/01 01:12:59;;;;;;;0.60;0.30;;;;;;;;;;5022250;28;20045;-76
2023/04/01 01:15:26;;;;;;;1.05;0.40;;;;;;;;;;5006876;28;20037;-76
2023/04/01 01:18:05;;;;;;;2.25;0.43;;;;;;;;;;5005292;28;20634;-76
2023/04/01 01:20:41;;;;;;;0.40;0.40;;;;;;;;;;5015161;28;20064;-76
2023/04/01 01:23:20;;;;;;;0.82;0.80;;;;;;;;;;5013502;28;20036;-76
2023/04/01 01:26:04;;;;;;;0.50;0.50;;;;;;;;;;5014369;28;20013;-76
2023/04/01 01:28:30;;;;;;;0.50;0.40;;;;;;;;;;5019254;28;20599;-76
2023/04/01 01:31:19;;;;;;;1.27;0.50;;;;;;;;;;5019222;28;20029;-76
2023/04/01 01:33:51;;;;;;;1.27;0.90;;;;;;;;;;5003836;28;20033;-76
2023/04/01 01:36:20;;;;;;;0.57;0.55;;;;;;;;;;5010942;28;20076;-76
2023/04/01 01:38:48;;;;;;;1.42;0.60;;;;;;;;;;5017765;28;20447;-77
2023/04/01 01:41:16;;;;;;;0.60;0.52;;;;;;;;;;5019533;28;20030;-76
2023/04/01 01:43:43;;;;;;;0.30;0.30;;;;;;;;;;5017439;28;20038;-76
2023/04/01 01:46:12;;;;;;;1.25;0.70;;;;;;;;;;5021522;28;20036;-76
2023/04/01 01:48:39;;;;;;;0.38;0.38;;;;;;;;;;5011903;28;20040;-76
2023/04/01 01:51:09;;;;;;;0.57;0.50;;;;;;;;;;5015746;28;20109;-76
2023/04/01 01:53:35;;;;;;;0.50;0.40;;;;;;;;;;5026223;28;20041;-76
2023/04/01 01:56:01;;;;;;;1.75;0.40;;;;;;;;;;5010342;28;20036;-76
2023/04/01 01:58:42;;;;;;;1.08;0.60;;;;;;;;;;5019957;28;20106;-77
2023/04/01 02:01:14;;;;;;;4.18;0.82;;;;;;;;;;5023699;28;20029;-76
2023/04/01 02:03:40;;;;;;;0.82;0.32;;;;;;;;;;5023787;28;20029;-76
2023/04/01 02:06:08;;;;;;;0.47;0.40;;;;;;;;;;5020163;28;20034;-76
2023/04/01 02:08:37;;;;;;;0.52;0.52;;;;;;;;;;5007761;28;20088;-77
2023/04/01 02:11:05;;;;;;;0.50;0.30;;;;;;;;;;5004024;28;20029;-76
2023/04/01 02:13:41;;;;;;;1.38;0.90;;;;;;;;;;5008875;28;20037;-76
2023/04/01 02:16:12;;;;;;;0.82;0.60;;;;;;;;;;5019243;28;20034;-76
2023/04/01 02:18:39;;;;;;;0.70;0.50;;;;;;;;;;5018463;28;20018;-76
2023/04/01 02:21:05;;;;;;;0.40;0.40;;;;;;;;;;5011793;28;20018;-76
2023/04/01 02:23:33;;;;;;;0.50;0.50;;;;;;;;;;5010387;28;20022;-76
2023/04/01 02:26:00;;;;;;;0.63;0.50;;;;;;;;;;5021844;28;20099;-76
2023/04/01 02:28:27;;;;;;;1.23;0.50;;;;;;;;;;5013937;28;20120;-76
2023/04/01 02:30:53;;;;;;;0.52;0.35;;;;;;;;;;5020977;28;20026;-76
2023/04/01 02:33:20;;;;;;;0.80;0.50;;;;;;;;;;5015725;28;20041;-76
2023/04/01 02:35:46;;;;;;;0.30;0.30;;;;;;;;;;5015647;28;20033;-75
2023/04/01 02:38:14;;;;;;;0.17;0.17;;;;;;;;;;5008567;28;20046;-76
2023/04/01 02:40:44;;;;;;;0.68;0.57;;;;;;;;;;5018958;28;20041;-75
2023/04/01 02:43:11;;;;;;;0.30;0.30;;;;;;;;;;5014016;28;20133;-76
2023/04/01 02:45:36;;;;;;;0.75;0.43;;;;;;;;;;5017626;28;20025;-76
2023/04/01 02:48:03;;;;;;;0.57;0.50;;;;;;;;;;5016504;28;20040;-76
2023/04/01 02:50:29;;;;;;;0.52;0.45;;;;;;;;;;5007344;28;20492;-76
2023/04/01 02:52:55;;;;;;;0.40;0.40;;;;;;;;;;5014943;28;20036;-76
2023/04/01 02:55:21;;;;;;;0.20;0.20;;;;;;;;;;5017803;28;20493;-75
2023/04/01 02:57:47;;;;;;;0.30;0.30;;;;;;;;;;5011482;28;20029;-76
2023/04/01 03:00:14;;;;;;;0.40;0.40;;;;;;;;;;5013251;28;20915;-76
2023/04/01 03:02:40;;;;;;;0.57;0.50;;;;;;;;;;5009500;28;20622;-76
2023/04/01 03:05:07;;;;;;;0.40;0.40;;;;;;;;;;5006916;28;20040;-75
2023/04/01 03:07:32;;;;;;;0.63;0.60;;;;;;;;;;5012016;28;20545;-75
2023/04/01 03:09:58;;;;;;;0.30;0.30;;;;;;;;;;5010518;28;20041;-76
2023/04/01 03:12:25;;;;;;;0.38;0.38;;;;;;;;;;5007845;28;20392;-75
2023/04/01 03:14:50;;;;;;;0.60;0.60;;;;;;;;;;5023845;28;20509;-75
2023/04/01 03:17:16;;;;;;;0.82;0.50;;;;;;;;;;5024372;28;20387;-75
2023/04/01 03:19:42;;;;;;;0.50;0.50;;;;;;;;;;5021593;28;20014;-75
2023/04/01 03:22:10;;;;;;;0.35;0.35;;;;;;;;;;5020168;28;20026;-75
2023/04/01 03:24:36;;;;;;;0.40;0.40;;;;;;;;;;5028443;28;20095;-75
2023/04/01 03:27:02;;;;;;;0.40;0.40;;;;;;;;;;5026452;28;20037;-75
2023/04/01 03:29:28;;;;;;;0.40;0.40;;;;;;;;;;5024325;28;20025;-75
2023/04/01 03:31:54;;;;;;;1.00;0.30;;;;;;;;;;5009277;28;20026;-75
2023/04/01 03:34:20;;;;;;;0.50;0.50;;;;;;;;;;5014759;28;20017;-74
2023/04/01 03:36:46;;;;;;;0.40;0.40;;;;;;;;;;5019972;28;20480;-75
2023/04/01 03:39:12;;;;;;;1.35;0.50;;;;;;;;;;5017809;28;20033;-75
2023/04/01 03:41:38;;;;;;;1.17;0.50;;;;;;;;;;5016593;28;20489;-75
2023/04/01 03:44:04;;;;;;;0.50;0.50;;;;;;;;;;5011752;28;20049;-75
2023/04/01 03:46:30;;;;;;;0.47;0.47;;;;;;;;;;5015860;28;20072;-75
2023/04/01 03:48:56;;;;;;;0.35;0.35;;;;;;;;;;5017380;28;20117;-75
2023/04/01 03:51:22;;;;;;;0.93;0.50;;;;;;;;;;5008058;28;20025;-75
2023/04/01 03:53:48;;;;;;;0.25;0.25;;;;;;;;;;5011863;28;20029;-74
2023/04/01 03:56:14;;;;;;;0.85;0.50;;;;;;;;;;5020172;28;20026;-76
2023/04/01 03:58:40;;;;;;;0.65;0.50;;;;;;;;;;5016749;28;20018;-76
2023/04/01 04:01:16;;;;;;;0.32;0.32;;;;;;;;;;5012108;28;20424;-76
2023/04/01 04:03:43;;;;;;;0.47;0.47;;;;;;;;;;5020659;28;20047;-75
2023/04/01 04:06:13;;;;;;;0.50;0.38;;;;;;;;;;5013207;28;20108;-76
2023/04/01 04:08:39;;;;;;;0.32;0.32;;;;;;;;;;5008760;28;20037;-75
2023/04/01 04:11:05;;;;;;;3.40;0.70;;;;;;;;;;5019953;28;20045;-75
2023/04/01 04:13:31;;;;;;;1.38;0.50;;;;;;;;;;5003608;28;20034;-75
2023/04/01 04:15:57;;;;;;;0.52;0.40;;;;;;;;;;5011765;28;20017;-75
2023/04/01 04:18:23;;;;;;;0.77;0.60;;;;;;;;;;5015876;28;20503;-76
2023/04/01 04:20:50;;;;;;;0.32;0.32;;;;;;;;;;5008313;28;20566;-75
2023/04/01 04:23:17;;;;;;;0.40;0.40;;;;;;;;;;5018507;28;20152;-76
2023/04/01 04:25:53;;;;;;;1.30;0.75;;;;;;;;;;5009251;28;20028;-76
2023/04/01 04:28:19;;;;;;;1.08;0.30;;;;;;;;;;5016921;28;20072;-75
2023/04/01 04:30:45;;;;;;;0.70;0.60;;;;;;;;;;5009994;28;20052;-76
2023/04/01 04:33:11;;;;;;;0.47;0.38;;;;;;;;;;5015697;28;20033;-76
2023/04/01 04:35:37;;;;;;;0.75;0.50;;;;;;;;;;5007093;28;20022;-76
2023/04/01 04:38:03;;;;;;;1.00;0.50;;;;;;;;;;5005733;28;20026;-76
2023/04/01 04:40:29;;;;;;;0.95;0.50;;;;;;;;;;5004371;28;20030;-75
2023/04/01 04:42:55;;;;;;;0.30;0.30;;;;;;;;;;5000159;28;20022;-75
2023/04/01 04:45:21;;;;;;;5.20;0.60;;;;;;;;;;5017270;28;20060;-76
2023/04/01 04:47:47;;;;;;;0.98;0.28;;;;;;;;;;5011754;28;20021;-75
2023/04/01 04:50:13;;;;;;;1.10;0.60;;;;;;;;;;5004406;28;20495;-78
2023/04/01 04:52:39;;;;;;;0.30;0.30;;;;;;;;;;5010656;28;20794;-76
2023/04/01 04:55:05;;;;;;;0.77;0.47;;;;;;;;;;5016600;28;20124;-76
2023/04/01 04:57:31;;;;;;;0.95;0.50;;;;;;;;;;5014163;28;20634;-75
2023/04/01 04:59:57;;;;;;;0.28;0.28;;;;;;;;;;5008566;28;20033;-75
2023/04/01 05:02:23;;;;;;;0.40;0.40;;;;;;;;;;5014753;28;20022;-75
2023/04/01 05:04:49;;;;;;;0.30;0.30;;;;;;;;;;5015236;28;20033;-75
2023/04/01 05:07:15;;;;;;;0.32;0.32;;;;;;;;;;5015890;28;20040;-76
2023/04/01 05:09:41;;;;;;;0.22;0.22;;;;;;;;;;4998055;28;20153;-75
2023/04/01 05:12:07;;;;;;;0.57;0.57;;;;;;;;;;5012291;28;20116;-76
2023/04/01 05:14:33;;;;;;;0.52;0.35;;;;;;;;;;5017254;28;20033;-75
2023/04/01 05:16:59;;;;;;;0.43;0.43;;;;;;;;;;5007285;28;20036;-75
2023/04/01 05:19:24;;;;;;;0.47;0.35;;;;;;;;;;5000764;28;20033;-75
2023/04/01 05:21:52;;;;;;;0.77;0.52;;;;;;;;;;5006365;28;20033;-75
2023/04/01 05:24:18;;;;;;;0.30;0.30;;;;;;;;;;5008041;28;20037;-76
2023/04/01 05:26:44;;;;;;;0.65;0.50;;;;;;;;;;5012694;28;20021;-76
2023/04/01 05:29:10;;;;;;;0.98;0.47;;;;;;;;;;4996267;28;20416;-75
2023/04/01 05:31:36;;;;;;;0.52;0.50;;;;;;;;;;5017501;28;20029;-76
2023/04/01 05:34:02;;;;;;;0.22;0.22;;;;;;;;;;5006260;28;20389;-76
2023/04/01 05:36:28;;;;;;;0.65;0.57;;;;;;;;;;5019008;28;20645;-75
2023/04/01 05:38:57;;;;;;;0.85;0.85;;;;;;;;;;5020305;28;20042;-75
2023/04/01 05:41:23;;;;;;;0.40;0.40;;;;;;;;;;5014573;28;20028;-75
2023/04/01 05:43:49;;;;;;;0.60;0.60;;;;;;;;;;5007621;28;20038;-79
2023/04/01 05:46:15;;;;;;;1.02;0.50;;;;;;;;;;5006488;28;20026;-75
2023/04/01 05:48:41;;;;;;;0.75;0.52;;;;;;;;;;5008742;28;20337;-75
2023/04/01 05:51:06;;;;;;;0.40;0.40;;;;;;;;;;5007846;28;20033;-74
2023/04/01 05:53:32;;;;;;;0.57;0.57;;;;;;;;;;5010722;28;20092;-75
2023/04/01 05:56:02;;;;;;;0.43;0.43;;;;;;;;;;5006198;28;20034;-75
2023/04/01 05:58:28;;;;;;;0.65;0.50;;;;;;;;;;5009073;28;20026;-75
2023/04/01 06:01:00;;;;;;;1.90;0.30;;;;;;;;;;5014059;28;20041;-75
2023/04/01 06:03:26;;;;;;;0.40;0.40;;;;;;;;;;5011499;28;20018;-75
2023/04/01 06:05:52;;;;;;;0.63;0.50;;;;;;;;;;5006357;28;20028;-75
2023/04/01 06:08:18;;;;;;;0.43;0.43;;;;;;;;;;5003249;28;20044;-75
2023/04/01 06:11:03;;;;;;;2.30;0.77;;;;;;;;;;5011516;28;20026;-76
2023/04/01 06:13:48;;;;;;;0.35;0.35;;;;;;;;;;5008212;28;20494;-75
2023/04/01 06:16:32;;;;;;;1.58;0.60;;;;;;;;;;5017887;28;20021;-75
2023/04/01 06:19:23;;;;;;;0.28;0.28;;;;;;;;;;5018314;28;20042;-75
2023/04/01 06:22:09;;;;;;;0.30;0.30;;;;;;;;;;5015570;28;20021;-76
2023/04/01 06:24:47;;;;;;;0.80;0.70;;;;;;;;;;5011232;28;20116;-75
2023/04/01 06:27:13;;;;;;;0.43;0.40;;;;;;;;;;5003256;28;20105;-75
2023/04/01 06:29:47;;;;;;;0.40;0.40;;;;;;;;;;5017109;28;20047;-75
2023/04/01 06:32:21;;;;;;;0.93;0.85;;;;;;;;;;5025529;28;20117;-75
2023/04/01 06:35:06;;;;;;;0.43;0.43;;;;;;;;;;5019069;28;20149;-75
2023/04/01 06:37:35;;;;;;;0.55;0.55;;;;;;;;;;5019024;28;20025;-77
2023/04/01 06:40:07;;;;;;;2.15;0.70;;;;;;;;;;5015611;28;20037;-75
2023/04/01 06:42:46;;;;;;;0.40;0.40;;;;;;;;;;5007055;28;20049;-76
2023/04/01 06:45:17;;;;;;;0.95;0.57;;;;;;;;;;5010046;28;20050;-77
2023/04/01 06:48:04;;;;;;;0.57;0.47;;;;;;;;;;5015109;28;20038;-76
2023/04/01 06:50:49;;;;;;;3.70;0.50;;;;;;;;;;5020341;28;20408;-76
2023/04/01 06:53:21;;;;;;;1.40;1.00;;;;;;;;;;5009769;28;20034;-76
2023/04/01 06:55:48;;;;;;;8.38;0.85;;;;;;;;;;5017329;28;20036;-76
2023/04/01 06:58:34;;;;;;;0.95;0.75;;;;;;;;;;5014563;28;20124;-76
2023/04/01 07:01:02;;;;;;;0.70;0.50;;;;;;;;;;5009459;28;20021;-76
2023/04/01 07:03:37;;;;;;;0.40;0.40;;;;;;;;;;5010016;28;20119;-76
2023/04/01 07:06:05;;;;;;;1.33;0.57;;;;;;;;;;5016388;28;20446;-76
2023/04/01 07:08:32;;;;;;;2.72;0.80;;;;;;;;;;5016928;28;20534;-77
2023/04/01 07:11:05;;;;;;;1.00;0.70;;;;;;;;;;5023276;28;20073;-76
2023/04/01 07:13:45;;;;;;;0.85;0.57;;;;;;;;;;5013427;28;20769;-75
2023/04/01 07:16:14;;;;;;;1.02;0.47;;;;;;;;;;5022095;28;20103;-76
2023/04/01 07:18:46;;;;;;;1.60;1.10;;;;;;;;;;5014077;28;20025;-76
2023/04/01 07:21:20;;;;;;;0.70;0.50;;;;;;;;;;5014390;28;20134;-74
2023/04/01 07:23:46;;;;;;;1.13;0.55;;;;;;;;;;5012512;28;20049;-73
2023/04/01 07:26:17;;;;;;;0.85;0.65;;;;;;;;;;5013460;28;20496;-78
2023/04/01 07:28:43;;;;;;;1.15;0.60;;;;;;;;;;5019437;28;20037;-76
2023/04/01 07:31:30;;;;;;;0.50;0.50;;;;;;;;;;5033279;28;20037;-79
2023/04/01 07:34:01;;;;;;;0.95;0.57;;;;;;;;;;5021684;28;20503;-77
2023/04/01 07:36:34;;;;;;;0.88;0.70;;;;;;;;;;5017378;28;20064;-77
2023/04/01 07:39:03;;;;;;;0.98;0.70;;;;;;;;;;5018252;28;20671;-77
2023/04/01 07:41:38;;;;;;;0.85;0.70;;;;;;;;;;5013500;28;20050;-77
2023/04/01 07:44:13;;;;;;;2.28;1.33;;;;;;;;;;5017232;28;20595;-79
2023/04/01 07:46:46;;;;;;;1.17;0.93;;;;;;;;;;5015908;28;20033;-79
2023/04/01 07:49:24;;;;;;;1.27;0.85;;;;;;;;;;5019986;28;20402;-77
2023/04/01 07:52:09;;;;;;;1.10;0.80;;;;;;;;;;5020908;28;20049;-79
2023/04/01 07:54:49;;;;;;;0.50;0.50;;;;;;;;;;5015742;28;20037;-77
2023/04/01 07:57:21;;;;;;;0.90;0.60;;;;;;;;;;5013363;28;20358;-77
2023/04/01 07:59:59;;;;;;;0.63;0.60;;;;;;;;;;5022929;28;20499;-77
2023/04/01 08:02:44;;;;;;;1.10;0.77;;;;;;;;;;5016951;28;20167;-76
2023/04/01 08:05:27;;;;;;;0.75;0.75;;;;;;;;;;5023058;28;20113;-76
2023/04/01 08:07:53;;;;;;;0.95;0.88;;;;;;;;;;5016327;28;20033;-79
2023/04/01 08:10:22;;;;;;;0.52;0.52;;;;;;;;;;5013370;28;20044;-78
2023/04/01 08:12:53;;;;;;;1.63;0.80;;;;;;;;;;5010914;28;20032;-80
2023/04/01 08:15:26;;;;;;;7.50;1.23;;;;;;;;;;5022600;28;20040;-81
2023/04/01 08:17:52;;;;;;;0.90;0.60;;;;;;;;;;5007309;28;20057;-79
2023/04/01 08:20:18;;;;;;;0.77;0.77;;;;;;;;;;5010783;28;20435;-79
2023/04/01 08:22:49;;;;;;;0.90;0.60;;;;;;;;;;5010010;28;20028;-80
2023/04/01 08:25:20;;;;;;;0.70;0.52;;;;;;;;;;5011788;28;20516;-81
2023/04/01 08:27:49;;;;;;;0.70;0.70;;;;;;;;;;5019128;28;20037;-79
2023/04/01 08:30:18;;;;;;;0.60;0.60;;;;;;;;;;5021048;28;20713;-79
2023/04/01 08:32:47;;;;;;;0.73;0.50;;;;;;;;;;5018616;28;20802;-76
2023/04/01 08:35:31;;;;;;;1.13;0.80;;;;;;;;;;5017543;28;20025;-76
2023/04/01 08:38:03;;;;;;;0.77;0.77;;;;;;;;;;5013217;28;20104;-76
2023/04/01 08:40:32;;;;;;;0.85;0.77;;;;;;;;;;5016040;28;20050;-74
2023/04/01 08:43:02;;;;;;;1.52;0.93;;;;;;;;;;5010296;28;20188;-75
2023/04/01 08:45:54;;;;;;;1.05;0.80;;;;;;;;;;5017621;28;20915;-76
2023/04/01 08:48:35;;;;;;;0.88;0.60;;;;;;;;;;5017398;28;20026;-77
2023/04/01 08:51:17;;;;;;;6.07;0.80;;;;;;;;;;5011160;28;20564;-75
2023/04/01 08:53:43;;;;;;;0.70;0.70;;;;;;;;;;5011017;28;20048;-75
2023/04/01 08:56:23;;;;;;;0.60;0.60;;;;;;;;;;5013151;28;20037;-75
2023/04/01 08:58:58;;;;;;;0.75;0.70;;;;;;;;;;5015577;28;20030;-74
2023/04/01 09:01:43;;;;;;;1.17;0.60;;;;;;;;;;5018207;28;20032;-74
2023/04/01 09:04:09;;;;;;;1.25;0.57;;;;;;;;;;5013574;28;20021;-74
2023/04/01 09:09:46;;;;;;;0.65;0.60;;;;;;;;;;4999422;28;20139;-74
2023/04/01 09:12:18;;;;;;;1.23;0.77;;;;;;;;;;5018911;28;20029;-74
2023/04/01 09:15:02;;;;;;;1.08;0.80;;;;;;;;;;5010608;28;20034;-74
2023/04/01 09:17:44;;;;;;;0.93;0.90;;;;;;;;;;5008237;28;20049;-74
2023/04/01 09:20:28;;;;;;;1.45;0.93;;;;;;;;;;5000990;28;20025;-74
2023/04/01 09:23:13;;;;;;;1.77;1.30;;;;;;;;;;5003631;28;20030;-75
2023/04/01 09:25:39;;;;;;;3.70;0.80;;;;;;;;;;5004817;28;20424;-74
2023/04/01 09:28:16;;;;;;;1.02;0.85;;;;;;;;;;5012624;28;20030;-74
2023/04/01 09:30:45;;;;;;;2.00;0.98;;;;;;;;;;5010244;28;20549;-74
2023/04/01 09:33:30;;;;;;;1.55;0.85;;;;;;;;;;5003589;28;20072;-74
2023/04/01 09:36:15;;;;;;;1.38;0.88;;;;;;;;;;5009288;28;20466;-74
2023/04/01 09:39:06;;;;;;;1.23;0.88;;;;;;;;;;5014698;28;20034;-74
2023/04/01 09:41:36;;;;;;;1.52;0.90;;;;;;;;;;5013550;28;20030;-74
2023/04/01 09:44:04;;;;;;;1.27;0.80;;;;;;;;;;5006133;28;20037;-74
2023/04/01 09:46:41;;;;;;;1.30;1.13;;;;;;;;;;5007531;28;20034;-73
2023/04/01 09:49:14;;;;;;;1.20;0.95;;;;;;;;;;5012380;28;20029;-74
2023/04/01 09:51:51;;;;;;;1.60;1.00;;;;;;;;;;5005475;28;20029;-74
2023/04/01 09:54:38;;;;;;;2.78;1.30;;;;;;;;;;5021308;28;20080;-74
2023/04/01 09:57:31;;;;;;;0.70;0.70;;;;;;;;;;5010345;28;20104;-74
2023/04/01 10:00:21;;;;;;;2.13;1.30;;;;;;;;;;5013136;28;20029;-74
2023/04/01 10:03:05;;;;;;;1.35;0.88;;;;;;;;;;5005553;28;20053;-74
2023/04/01 10:05:40;;;;;;;1.77;0.80;;;;;;;;;;5018769;28;20388;-80
2023/04/01 10:08:24;;;;;;;1.00;0.85;;;;;;;;;;5011771;28;20079;-81
2023/04/01 10:11:09;;;;;;;1.67;1.30;;;;;;;;;;5009040;28;20037;-82
2023/04/01 10:13:45;;;;;;;0.98;0.68;;;;;;;;;;5013328;28;20488;-75
2023/04/01 10:16:20;;;;;;;2.10;0.82;;;;;;;;;;5010048;28;20029;-74
2023/04/01 10:19:04;;;;;;;1.25;0.95;;;;;;;;;;5011274;28;20039;-76
2023/04/01 10:21:50;;;;;;;0.95;0.90;;;;;;;;;;5010757;28;20565;-75
2023/04/01 10:24:25;;;;;;;1.75;1.00;;;;;;;;;;5013325;28;20076;-72
2023/04/01 10:27:14;;;;;;;3.53;0.90;;;;;;;;;;5008599;28;20056;-72
2023/04/01 10:29:51;;;;;;;1.55;1.20;;;;;;;;;;5003717;28;20030;-74
2023/04/01 10:32:39;;;;;;;1.45;1.10;;;;;;;;;;5008451;28;20038;-73
2023/04/01 10:35:15;;;;;;;1.05;0.98;;;;;;;;;;5012541;28;20042;-77
2023/04/01 10:37:59;;;;;;;1.58;1.27;;;;;;;;;;5013393;28;20113;-72
2023/04/01 10:40:25;;;;;;;2.53;1.55;;;;;;;;;;5013390;28;20498;-73
2023/04/01 10:43:11;;;;;;;3.30;1.20;;;;;;;;;;5014651;28;20022;-73
2023/04/01 10:45:58;;;;;;;1.30;1.10;;;;;;;;;;5018190;28;20149;-72
2023/04/01 10:48:44;;;;;;;2.28;1.52;;;;;;;;;;5012758;28;20033;-72
2023/04/01 10:51:29;;;;;;;1.33;1.23;;;;;;;;;;5014850;28;20040;-80
2023/04/01 10:54:07;;;;;;;1.95;1.33;;;;;;;;;;5007867;28;20033;-78
2023/04/01 10:56:35;;;;;;;2.65;2.03;;;;;;;;;;5017099;28;20032;-78
2023/04/01 10:59:29;;;;;;;5.45;1.20;;;;;;;;;;5013753;28;20268;-79
2023/04/01 11:01:59;;;;;;;1.92;1.15;;;;;;;;;;5015968;28;20029;-81
2023/04/01 11:04:44;;;;;;;2.33;1.60;;;;;;;;;;5015204;28;20393;-75
2023/04/01 11:07:31;;;;;;;2.50;1.50;;;;;;;;;;5016865;28;20025;-75
2023/04/01 11:10:16;;;;;;;1.50;1.40;;;;;;;;;;5014224;28;20021;-75
2023/04/01 11:12:54;;;;;;;2.03;1.40;;;;;;;;;;5009517;28;20030;-75
2023/04/01 11:15:27;;;;;;;1.80;1.42;;;;;;;;;;5014578;28;20116;-75
2023/04/01 11:18:00;;;;;;;1.70;1.50;;;;;;;;;;5009402;28;20484;-75
2023/04/01 11:21:01;;;;;;;1.83;1.38;;;;;;;;;;5012938;28;20030;-76
2023/04/01 11:23:33;;;;;;;3.30;1.60;;;;;;;;;;4941472;29;20110;-75
2023/04/01 11:26:06;;;;;;;2.28;1.63;;;;;;;;;;4993156;28;20055;-75
2023/04/01 11:28:51;;;;;;;3.10;1.67;;;;;;;;;;5009541;28;20650;-76
2023/04/01 11:31:34;;;;;;;1.88;1.55;;;;;;;;;;5021502;28;20034;-75
2023/04/01 11:34:19;;;;;;;3.80;1.73;;;;;;;;;;5014077;28;20034;-75
2023/04/01 11:36:49;;;;;;;2.38;1.20;;;;;;;;;;5013551;28;20506;-77
2023/04/01 11:39:23;;;;;;;1.45;1.20;;;;;;;;;;5021889;28;20053;-80
2023/04/01 11:42:08;;;;;;;2.70;1.83;;;;;;;;;;5014117;28;20651;-81
2023/04/01 11:44:35;;;;;;;1.65;1.30;;;;;;;;;;5002856;28;20432;-81
2023/04/01 11:47:11;;;;;;;1.67;1.45;;;;;;;;;;5009747;28;20033;-79
2023/04/01 11:49:56;;;;;;;8.43;1.10;;;;;;;;;;5009966;28;20053;-80
2023/04/01 11:52:27;;;;;;;3.47;1.77;;;;;;;;;;5012375;28;20026;-80
2023/04/01 11:54:53;;;;;;;;;;;;;;;;;;5013048;28;20610;-82
2023/04/01 11:57:34;;;;;;;2.75;1.52;;;;;;;;;;5022122;28;20008;-76
2023/04/01 12:00:03;;;;;;;2.08;1.48;;;;;;;;;;5009067;28;20038;-82
2023/04/01 12:02:38;;;;;;;1.40;1.20;;;;;;;;;;5008020;28;20042;-75
2023/04/01 12:05:23;;;;;;;1.65;1.27;;;;;;;;;;5009579;28;20060;-76
2023/04/01 12:08:08;;;;;;;1.75;1.40;;;;;;;;;;5009174;28;20148;-74
2023/04/01 12:10:45;;;;;;;2.10;1.40;;;;;;;;;;5011099;28;20045;-75
2023/04/01 12:13:23;;;;;;;1.45;1.02;;;;;;;;;;5014692;28;20037;-73
2023/04/01 12:16:03;;;;;;;1.02;0.93;;;;;;;;;;5006909;28;20042;-76
2023/04/01 12:18:36;;;;;;;4.10;1.30;;;;;;;;;;5016395;28;20091;-75
2023/04/01 12:21:05;;;;;;;2.72;1.38;;;;;;;;;;5020045;28;20113;-75
2023/04/01 12:23:47;;;;;;;1.38;1.20;;;;;;;;;;5013651;28;20029;-76
2023/04/01 12:26:22;;;;;;;1.48;1.25;;;;;;;;;;5013563;28;20033;-78
2023/04/01 12:28:59;;;;;;;2.83;1.55;;;;;;;;;;5015230;28;20021;-76
2023/04/01 12:31:36;;;;;;;2.05;1.25;;;;;;;;;;5005286;28;20048;-76
2023/04/01 12:34:21;;;;;;;4.10;1.95;;;;;;;;;;5009301;28;20026;-85
2023/04/01 12:37:04;;;;;;;2.00;1.75;;;;;;;;;;5017425;28;20021;-80
2023/04/01 12:39:31;;;;;;;2.47;1.77;;;;;;;;;;5009056;28;20028;-83
2023/04/01 12:41:57;;;;;;;5.55;2.00;;;;;;;;;;5022511;28;20100;-81
2023/04/01 12:44:38;;;;;;;4.65;1.52;;;;;;;;;;5010257;28;20518;-86
2023/04/01 12:47:07;;;;;;;3.28;1.90;;;;;;;;;;5014139;28;20037;-88
2023/04/01 12:49:38;;;;;;;2.65;1.58;;;;;;;;;;5009719;28;20057;-80
2023/04/01 12:52:04;;;;;;;;;;;;;;;;;;5014856;28;20042;-80
2023/04/01 12:54:42;;;;;;;1.92;1.70;;;;;;;;;;5013556;28;19923;-80
2023/04/01 12:57:20;;;;;;;2.47;1.90;;;;;;;;;;5011177;28;20030;-84
2023/04/01 13:00:06;;;;;;;4.03;2.00;;;;;;;;;;5015146;28;20034;-81
2023/04/01 13:02:50;;;;;;;3.60;1.83;;;;;;;;;;5017375;28;20026;-87
2023/04/01 13:05:38;;;;;;;3.42;2.25;;;;;;;;;;5019978;28;20068;-79
2023/04/01 13:08:29;;;;;;;5.43;2.30;;;;;;;;;;5012639;28;20053;-76
2023/04/01 13:10:58;;;;;;;2.33;2.13;;;;;;;;;;5015801;28;20030;-78
2023/04/01 13:13:23;;;;;;;2.53;1.83;;;;;;;;;;5011577;28;20037;-78
2023/04/01 13:15:55;;;;;;;3.47;2.13;;;;;;;;;;5017264;28;20544;-80
2023/04/01 13:18:25;;;;;;;2.92;2.30;;;;;;;;;;5017336;28;20033;-80
2023/04/01 13:21:17;;;;;;;2.17;1.63;;;;;;;;;;5013024;28;20040;-79
2023/04/01 13:23:43;;;;;;;5.93;2.28;;;;;;;;;;4991439;28;20030;-79
2023/04/01 13:26:30;;;;;;;4.10;1.85;;;;;;;;;;5018444;28;20056;-80
2023/04/01 13:29:11;;;;;;;3.42;1.73;;;;;;;;;;5010388;28;20038;-80
2023/04/01 13:31:56;;;;;;;2.70;1.88;;;;;;;;;;5009828;28;20022;-80
2023/04/01 13:34:28;;;;;;;2.25;1.70;;;;;;;;;;4992978;28;20030;-80
2023/04/01 13:37:15;;;;;;;5.75;2.22;;;;;;;;;;5016757;28;20157;-80
2023/04/01 13:39:59;;;;;;;4.63;2.67;;;;;;;;;;5016339;28;20036;-80
2023/04/01 13:42:28;;;;;;;3.97;2.70;;;;;;;;;;5012171;28;20026;-80
2023/04/01 13:45:02;;;;;;;8.00;2.90;;;;;;;;;;5010278;28;20413;-80
2023/04/01 13:47:48;;;;;;;4.03;2.50;;;;;;;;;;5017572;28;20025;-80
2023/04/01 13:50:15;;;;;;;6.13;2.40;;;;;;;;;;4982777;28;20439;-79
2023/04/01 13:53:01;;;;;;;2.65;2.10;;;;;;;;;;5012646;28;20160;-81
2023/04/01 13:55:49;;;;;;;3.70;2.42;;;;;;;;;;5010501;28;20365;-82
2023/04/01 13:58:29;;;;;;;3.08;1.90;;;;;;;;;;5015260;28;20025;-84
2023/04/01 14:00:57;;;;;;;3.65;2.10;;;;;;;;;;5010224;28;20116;-83
2023/04/01 14:03:45;;;;;;;3.95;2.42;;;;;;;;;;4987397;28;20476;-84
2023/04/01 14:06:20;;;;;;;7.03;2.65;;;;;;;;;;5015788;28;20045;-80
2023/04/01 14:08:59;;;;;;;3.55;2.20;;;;;;;;;;5002830;28;20022;-80
2023/04/01 14:11:36;;;;;;;4.55;2.38;;;;;;;;;;5010764;28;20106;-80
2023/04/01 14:14:05;;;;;;;4.93;2.60;;;;;;;;;;5015464;28;20017;-80
2023/04/01 14:16:56;;;;;;;5.32;2.20;;;;;;;;;;5004136;28;20154;-81
2023/04/01 14:19:31;;;;;;;2.70;2.17;;;;;;;;;;5017825;28;20048;-80
2023/04/01 14:22:01;;;;;;;3.50;2.45;;;;;;;;;;5017697;28;20132;-79
2023/04/01 14:24:45;;;;;;;3.35;2.22;;;;;;;;;;5011182;28;20025;-78
2023/04/01 14:27:14;;;;;;;2.83;1.65;;;;;;;;;;5011909;28;20117;-80
2023/04/01 14:29:59;;;;;;;4.00;2.00;;;;;;;;;;5010947;28;20228;-79
2023/04/01 14:32:44;;;;;;;4.05;2.20;;;;;;;;;;5016727;28;20036;-80
2023/04/01 14:35:18;;;;;;;3.60;2.40;;;;;;;;;;5012330;28;20811;-80
2023/04/01 14:37:58;;;;;;;3.65;2.17;;;;;;;;;;5016451;28;20053;-80
2023/04/01 14:40:28;;;;;;;2.80;2.10;;;;;;;;;;5013968;28;20030;-79
2023/04/01 14:43:16;;;;;;;2.83;1.90;;;;;;;;;;5024163;22;20101;-76
2023/04/01 14:45:50;;;;;;;4.18;2.05;;;;;;;;;;5001985;28;20037;-77
2023/04/01 14:48:25;;;;;;;2.70;1.92;;;;;;;;;;4996189;28;20030;-75
2023/04/01 14:50:53;;;;;;;2.13;1.83;;;;;;;;;;5013282;28;20029;-75
2023/04/01 14:53:25;;;;;;;3.05;1.83;;;;;;;;;;5018081;28;20052;-80
2023/04/01 14:55:51;;;;;;;4.70;1.60;;;;;;;;;;5022621;28;20029;-78
2023/04/01 14:58:18;;;;;;;2.22;1.70;;;;;;;;;;5010816;28;20029;-79
2023/04/01 15:01:11;;;;;;;3.25;1.92;;;;;;;;;;5010359;28;20025;-80
2023/04/01 15:03:50;;;;;;;4.22;2.10;;;;;;;;;;5008351;28;20052;-81
2023/04/01 15:06:21;;;;;;;3.75;2.05;;;;;;;;;;5015593;28;20131;-81
2023/04/01 15:08:47;;;;;;;2.92;1.63;;;;;;;;;;5007478;28;20025;-81
2023/04/01 15:11:32;;;;;;;3.58;2.03;;;;;;;;;;5007519;28;20045;-80
2023/04/01 15:14:30;;;;;;;2.28;1.73;;;;;;;;;;5011386;28;20052;-80
2023/04/01 15:17:23;;;;;;;3.10;1.50;;;;;;;;;;4953249;28;20033;-79
2023/04/01 15:20:12;;;;;;;2.00;1.70;;;;;;;;;;5004453;28;20483;-80
2023/04/01 15:22:43;;;;;;;3.08;1.77;;;;;;;;;;5015335;28;20037;-80